sensor_id;sensor_type;location;lat;lon;timestamp;P1;durP1;ratioP1;P2;durP2;ratioP2
3465;SDS011;1747;48.884;9.160;2024-02-21T00:01:06;9.55;;;3.00;;
3465;SDS011;1747;48.884;9.160;2024-02-21T00:03:33;7.32;;;3.20;;
3465;SDS011;1747;48.884;9.160;2024-02-21T00:06:00;8.68;;;3.33;;
3465;SDS011;1747;48.884;9.160;2024-02-21T00:08:27;5.93;;;2.78;;
3465;SDS011;1747;48.884;9.160;2024-02-21T00:10:54;6.95;;;3.30;;
3465;SDS011;1747;48.884;9.160;2024-02-21T00:13:21;8.30;;;3.08;;
3465;SDS011;1747;48.884;9.160;2024-02-21T00:15:49;7.60;;;3.22;;
3465;SDS011;1747;48.884;9.160;2024-02-21T00:18:16;6.55;;;2.92;;
3465;SDS011;1747;48.884;9.160;2024-02-21T00:20:43;9.65;;;2.85;;
3465;SDS011;1747;48.884;9.160;2024-02-21T00:23:10;6.82;;;3.05;;
3465;SDS011;1747;48.884;9.160;2024-02-21T00:25:38;9.52;;;3.38;;
3465;SDS011;1747;48.884;9.160;2024-02-21T00:28:05;9.90;;;3.10;;
3465;SDS011;1747;48.884;9.160;2024-02-21T00:30:32;9.50;;;3.03;;
3465;SDS011;1747;48.884;9.160;2024-02-21T00:33:00;9.10;;;3.13;;
3465;SDS011;1747;48.884;9.160;2024-02-21T00:35:27;8.43;;;2.83;;
3465;SDS011;1747;48.884;9.160;2024-02-21T00:37:54;8.20;;;2.92;;
3465;SDS011;1747;48.884;9.160;2024-02-21T00:40:22;7.50;;;2.97;;
3465;SDS011;1747;48.884;9.160;2024-02-21T00:42:49;9.23;;;3.30;;
3465;SDS011;1747;48.884;9.160;2024-02-21T00:45:15;6.75;;;2.78;;
3465;SDS011;1747;48.884;9.160;2024-02-21T00:47:42;7.60;;;3.00;;
3465;SDS011;1747;48.884;9.160;2024-02-21T00:50:10;10.75;;;3.15;;
3465;SDS011;1747;48.884;9.160;2024-02-21T00:52:37;5.40;;;2.33;;
3465;SDS011;1747;48.884;9.160;2024-02-21T00:55:05;7.95;;;2.95;;
3465;SDS011;1747;48.884;9.160;2024-02-21T00:57:32;4.95;;;2.78;;
3465;SDS011;1747;48.884;9.160;2024-02-21T00:59:59;8.85;;;2.95;;
3465;SDS011;1747;48.884;9.160;2024-02-21T01:02:26;8.90;;;3.30;;
3465;SDS011;1747;48.884;9.160;2024-02-21T01:04:53;7.20;;;3.33;;
3465;SDS011;1747;48.884;9.160;2024-02-21T01:07:21;11.63;;;3.10;;
3465;SDS011;1747;48.884;9.160;2024-02-21T01:09:47;7.78;;;2.95;;
3465;SDS011;1747;48.884;9.160;2024-02-21T01:12:16;9.98;;;3.28;;
3465;SDS011;1747;48.884;9.160;2024-02-21T01:14:43;7.82;;;3.08;;
3465;SDS011;1747;48.884;9.160;2024-02-21T01:17:11;8.90;;;2.80;;
3465;SDS011;1747;48.884;9.160;2024-02-21T01:19:38;10.20;;;3.15;;
3465;SDS011;1747;48.884;9.160;2024-02-21T01:22:04;11.45;;;2.92;;
3465;SDS011;1747;48.884;9.160;2024-02-21T01:24:33;10.82;;;3.00;;
3465;SDS011;1747;48.884;9.160;2024-02-21T01:27:00;8.45;;;3.05;;
3465;SDS011;1747;48.884;9.160;2024-02-21T01:29:26;7.25;;;3.22;;
3465;SDS011;1747;48.884;9.160;2024-02-21T01:31:53;5.88;;;2.58;;
3465;SDS011;1747;48.884;9.160;2024-02-21T01:34:20;7.78;;;2.70;;
3465;SDS011;1747;48.884;9.160;2024-02-21T01:36:47;7.15;;;2.35;;
3465;SDS011;1747;48.884;9.160;2024-02-21T01:39:14;8.88;;;2.83;;
3465;SDS011;1747;48.884;9.160;2024-02-21T01:41:42;7.55;;;2.58;;
3465;SDS011;1747;48.884;9.160;2024-02-21T01:44:09;9.88;;;2.85;;
3465;SDS011;1747;48.884;9.160;2024-02-21T01:46:36;6.43;;;2.45;;
3465;SDS011;1747;48.884;9.160;2024-02-21T01:49:03;10.57;;;2.75;;
3465;SDS011;1747;48.884;9.160;2024-02-21T01:51:30;6.95;;;2.65;;
3465;SDS011;1747;48.884;9.160;2024-02-21T01:53:58;10.65;;;2.70;;
3465;SDS011;1747;48.884;9.160;2024-02-21T01:56:25;9.45;;;2.65;;
3465;SDS011;1747;48.884;9.160;2024-02-21T01:58:53;8.98;;;3.08;;
3465;SDS011;1747;48.884;9.160;2024-02-21T02:01:21;11.23;;;2.58;;
3465;SDS011;1747;48.884;9.160;2024-02-21T02:03:48;6.88;;;2.42;;
3465;SDS011;1747;48.884;9.160;2024-02-21T02:06:15;9.20;;;2.65;;
3465;SDS011;1747;48.884;9.160;2024-02-21T02:08:42;8.70;;;2.88;;
3465;SDS011;1747;48.884;9.160;2024-02-21T02:11:09;6.88;;;2.50;;
3465;SDS011;1747;48.884;9.160;2024-02-21T02:13:36;6.68;;;2.78;;
3465;SDS011;1747;48.884;9.160;2024-02-21T02:16:05;6.13;;;2.42;;
3465;SDS011;1747;48.884;9.160;2024-02-21T02:18:32;7.22;;;2.78;;
3465;SDS011;1747;48.884;9.160;2024-02-21T02:20:59;7.07;;;2.53;;
3465;SDS011;1747;48.884;9.160;2024-02-21T02:23:27;6.53;;;2.53;;
3465;SDS011;1747;48.884;9.160;2024-02-21T02:25:55;4.85;;;2.38;;
3465;SDS011;1747;48.884;9.160;2024-02-21T02:28:22;6.75;;;2.70;;
3465;SDS011;1747;48.884;9.160;2024-02-21T02:30:49;9.15;;;2.22;;
3465;SDS011;1747;48.884;9.160;2024-02-21T02:33:17;5.22;;;2.40;;
3465;SDS011;1747;48.884;9.160;2024-02-21T02:35:44;6.75;;;2.50;;
3465;SDS011;1747;48.884;9.160;2024-02-21T02:38:11;6.68;;;2.42;;
3465;SDS011;1747;48.884;9.160;2024-02-21T02:40:40;5.70;;;2.30;;
3465;SDS011;1747;48.884;9.160;2024-02-21T02:43:07;11.85;;;2.65;;
3465;SDS011;1747;48.884;9.160;2024-02-21T02:45:34;6.22;;;2.50;;
3465;SDS011;1747;48.884;9.160;2024-02-21T02:48:01;4.90;;;2.08;;
3465;SDS011;1747;48.884;9.160;2024-02-21T02:50:29;14.25;;;2.50;;
3465;SDS011;1747;48.884;9.160;2024-02-21T02:52:56;7.30;;;2.53;;
3465;SDS011;1747;48.884;9.160;2024-02-21T02:55:23;9.27;;;2.45;;
3465;SDS011;1747;48.884;9.160;2024-02-21T02:57:52;7.18;;;2.45;;
3465;SDS011;1747;48.884;9.160;2024-02-21T03:00:19;7.78;;;2.65;;
3465;SDS011;1747;48.884;9.160;2024-02-21T03:02:46;7.68;;;2.17;;
3465;SDS011;1747;48.884;9.160;2024-02-21T03:05:16;4.88;;;1.98;;
3465;SDS011;1747;48.884;9.160;2024-02-21T03:07:43;7.90;;;2.10;;
3465;SDS011;1747;48.884;9.160;2024-02-21T03:10:11;6.15;;;2.08;;
3465;SDS011;1747;48.884;9.160;2024-02-21T03:12:38;5.65;;;1.95;;
3465;SDS011;1747;48.884;9.160;2024-02-21T03:15:08;6.90;;;2.30;;
3465;SDS011;1747;48.884;9.160;2024-02-21T03:17:35;6.15;;;2.13;;
3465;SDS011;1747;48.884;9.160;2024-02-21T03:20:02;8.20;;;2.00;;
3465;SDS011;1747;48.884;9.160;2024-02-21T03:22:30;4.00;;;2.00;;
3465;SDS011;1747;48.884;9.160;2024-02-21T03:24:58;8.38;;;1.98;;
3465;SDS011;1747;48.884;9.160;2024-02-21T03:27:25;4.53;;;1.98;;
3465;SDS011;1747;48.884;9.160;2024-02-21T03:29:51;5.57;;;2.38;;
3465;SDS011;1747;48.884;9.160;2024-02-21T03:32:20;3.97;;;1.55;;
3465;SDS011;1747;48.884;9.160;2024-02-21T03:34:46;4.13;;;2.00;;
3465;SDS011;1747;48.884;9.160;2024-02-21T03:37:13;5.82;;;1.98;;
3465;SDS011;1747;48.884;9.160;2024-02-21T03:39:40;5.63;;;1.98;;
3465;SDS011;1747;48.884;9.160;2024-02-21T03:42:07;7.45;;;2.28;;
3465;SDS011;1747;48.884;9.160;2024-02-21T03:44:34;6.88;;;2.20;;
3465;SDS011;1747;48.884;9.160;2024-02-21T03:47:01;10.18;;;2.30;;
3465;SDS011;1747;48.884;9.160;2024-02-21T03:49:29;6.30;;;2.05;;
3465;SDS011;1747;48.884;9.160;2024-02-21T03:51:56;5.72;;;2.28;;
3465;SDS011;1747;48.884;9.160;2024-02-21T03:54:23;4.47;;;2.00;;
3465;SDS011;1747;48.884;9.160;2024-02-21T03:56:50;4.90;;;2.08;;
3465;SDS011;1747;48.884;9.160;2024-02-21T03:59:17;6.10;;;2.20;;
3465;SDS011;1747;48.884;9.160;2024-02-21T04:01:44;3.88;;;2.10;;
3465;SDS011;1747;48.884;9.160;2024-02-21T04:04:10;3.20;;;1.80;;
3465;SDS011;1747;48.884;9.160;2024-02-21T04:06:46;6.20;;;2.50;;
3465;SDS011;1747;48.884;9.160;2024-02-21T04:09:13;5.82;;;2.88;;
3465;SDS011;1747;48.884;9.160;2024-02-21T04:11:39;4.70;;;1.92;;
3465;SDS011;1747;48.884;9.160;2024-02-21T04:14:06;4.90;;;2.38;;
3465;SDS011;1747;48.884;9.160;2024-02-21T04:16:33;8.07;;;2.50;;
3465;SDS011;1747;48.884;9.160;2024-02-21T04:19:01;4.05;;;1.50;;
3465;SDS011;1747;48.884;9.160;2024-02-21T04:21:28;6.00;;;2.20;;
3465;SDS011;1747;48.884;9.160;2024-02-21T04:23:56;4.53;;;2.38;;
3465;SDS011;1747;48.884;9.160;2024-02-21T04:26:23;7.65;;;2.10;;
3465;SDS011;1747;48.884;9.160;2024-02-21T04:28:50;9.73;;;2.45;;
3465;SDS011;1747;48.884;9.160;2024-02-21T04:31:17;4.90;;;1.98;;
3465;SDS011;1747;48.884;9.160;2024-02-21T04:33:44;5.60;;;2.13;;
3465;SDS011;1747;48.884;9.160;2024-02-21T04:36:11;4.43;;;2.00;;
3465;SDS011;1747;48.884;9.160;2024-02-21T04:38:38;6.55;;;2.45;;
3465;SDS011;1747;48.884;9.160;2024-02-21T04:41:07;6.95;;;2.20;;
3465;SDS011;1747;48.884;9.160;2024-02-21T04:43:34;4.72;;;2.38;;
3465;SDS011;1747;48.884;9.160;2024-02-21T04:46:01;6.53;;;2.28;;
3465;SDS011;1747;48.884;9.160;2024-02-21T04:48:28;3.22;;;2.10;;
3465;SDS011;1747;48.884;9.160;2024-02-21T04:50:55;7.00;;;2.55;;
3465;SDS011;1747;48.884;9.160;2024-02-21T04:53:22;6.05;;;2.70;;
3465;SDS011;1747;48.884;9.160;2024-02-21T04:55:49;4.10;;;2.00;;
3465;SDS011;1747;48.884;9.160;2024-02-21T04:58:17;6.13;;;2.08;;
3465;SDS011;1747;48.884;9.160;2024-02-21T05:00:44;5.47;;;2.10;;
3465;SDS011;1747;48.884;9.160;2024-02-21T05:03:11;5.68;;;2.10;;
3465;SDS011;1747;48.884;9.160;2024-02-21T05:05:37;1.95;;;1.50;;
3465;SDS011;1747;48.884;9.160;2024-02-21T05:08:04;4.00;;;2.00;;
3465;SDS011;1747;48.884;9.160;2024-02-21T05:10:31;7.43;;;2.10;;
3465;SDS011;1747;48.884;9.160;2024-02-21T05:12:58;6.75;;;2.80;;
3465;SDS011;1747;48.884;9.160;2024-02-21T05:15:27;7.38;;;1.95;;
3465;SDS011;1747;48.884;9.160;2024-02-21T05:17:54;4.65;;;1.90;;
3465;SDS011;1747;48.884;9.160;2024-02-21T05:20:21;7.20;;;1.92;;
3465;SDS011;1747;48.884;9.160;2024-02-21T05:22:48;4.43;;;1.63;;
3465;SDS011;1747;48.884;9.160;2024-02-21T05:25:14;5.18;;;2.15;;
3465;SDS011;1747;48.884;9.160;2024-02-21T05:27:41;3.40;;;1.63;;
3465;SDS011;1747;48.884;9.160;2024-02-21T05:30:08;3.53;;;1.70;;
3465;SDS011;1747;48.884;9.160;2024-02-21T05:32:37;5.72;;;2.17;;
3465;SDS011;1747;48.884;9.160;2024-02-21T05:35:04;6.40;;;2.33;;
3465;SDS011;1747;48.884;9.160;2024-02-21T05:37:31;3.88;;;1.98;;
3465;SDS011;1747;48.884;9.160;2024-02-21T05:39:58;3.42;;;2.00;;
3465;SDS011;1747;48.884;9.160;2024-02-21T05:42:25;5.50;;;2.15;;
3465;SDS011;1747;48.884;9.160;2024-02-21T05:44:51;7.97;;;2.58;;
3465;SDS011;1747;48.884;9.160;2024-02-21T05:47:18;6.03;;;2.30;;
3465;SDS011;1747;48.884;9.160;2024-02-21T05:49:47;7.40;;;2.55;;
3465;SDS011;1747;48.884;9.160;2024-02-21T05:52:14;6.95;;;2.63;;
3465;SDS011;1747;48.884;9.160;2024-02-21T05:54:41;8.65;;;2.58;;
3465;SDS011;1747;48.884;9.160;2024-02-21T05:57:07;6.50;;;2.13;;
3465;SDS011;1747;48.884;9.160;2024-02-21T05:59:35;6.88;;;2.33;;
3465;SDS011;1747;48.884;9.160;2024-02-21T06:02:05;7.10;;;2.33;;
3465;SDS011;1747;48.884;9.160;2024-02-21T06:04:32;7.75;;;2.10;;
3465;SDS011;1747;48.884;9.160;2024-02-21T06:07:00;5.25;;;1.92;;
3465;SDS011;1747;48.884;9.160;2024-02-21T06:09:27;6.65;;;2.13;;
3465;SDS011;1747;48.884;9.160;2024-02-21T06:11:54;13.82;;;2.80;;
3465;SDS011;1747;48.884;9.160;2024-02-21T06:14:21;4.57;;;1.92;;
3465;SDS011;1747;48.884;9.160;2024-02-21T06:16:47;5.28;;;2.25;;
3465;SDS011;1747;48.884;9.160;2024-02-21T06:19:14;6.75;;;2.33;;
3465;SDS011;1747;48.884;9.160;2024-02-21T06:21:41;4.82;;;2.05;;
3465;SDS011;1747;48.884;9.160;2024-02-21T06:24:09;4.90;;;2.20;;
3465;SDS011;1747;48.884;9.160;2024-02-21T06:26:37;6.57;;;2.17;;
3465;SDS011;1747;48.884;9.160;2024-02-21T06:29:05;3.92;;;1.67;;
3465;SDS011;1747;48.884;9.160;2024-02-21T06:31:32;8.20;;;2.20;;
3465;SDS011;1747;48.884;9.160;2024-02-21T06:33:58;6.72;;;2.35;;
3465;SDS011;1747;48.884;9.160;2024-02-21T06:36:25;5.78;;;1.98;;
3465;SDS011;1747;48.884;9.160;2024-02-21T06:38:52;3.80;;;1.98;;
3465;SDS011;1747;48.884;9.160;2024-02-21T06:41:20;3.40;;;2.00;;
3465;SDS011;1747;48.884;9.160;2024-02-21T06:43:47;6.65;;;2.10;;
3465;SDS011;1747;48.884;9.160;2024-02-21T06:46:22;6.03;;;1.90;;
3465;SDS011;1747;48.884;9.160;2024-02-21T06:48:50;5.30;;;2.03;;
3465;SDS011;1747;48.884;9.160;2024-02-21T06:51:17;5.65;;;2.30;;
3465;SDS011;1747;48.884;9.160;2024-02-21T06:53:47;5.43;;;2.25;;
3465;SDS011;1747;48.884;9.160;2024-02-21T06:56:14;5.45;;;2.30;;
3465;SDS011;1747;48.884;9.160;2024-02-21T06:58:42;6.28;;;2.05;;
3465;SDS011;1747;48.884;9.160;2024-02-21T07:01:10;4.03;;;2.08;;
3465;SDS011;1747;48.884;9.160;2024-02-21T07:03:37;3.60;;;2.00;;
3465;SDS011;1747;48.884;9.160;2024-02-21T07:06:04;5.38;;;2.55;;
3465;SDS011;1747;48.884;9.160;2024-02-21T07:08:30;4.13;;;2.20;;
3465;SDS011;1747;48.884;9.160;2024-02-21T07:10:57;7.05;;;2.38;;
3465;SDS011;1747;48.884;9.160;2024-02-21T07:13:24;5.63;;;1.95;;
3465;SDS011;1747;48.884;9.160;2024-02-21T07:15:52;6.22;;;2.13;;
3465;SDS011;1747;48.884;9.160;2024-02-21T07:18:19;6.82;;;2.42;;
3465;SDS011;1747;48.884;9.160;2024-02-21T07:20:46;4.90;;;2.00;;
3465;SDS011;1747;48.884;9.160;2024-02-21T07:23:13;4.75;;;2.08;;
3465;SDS011;1747;48.884;9.160;2024-02-21T07:25:39;6.38;;;2.00;;
3465;SDS011;1747;48.884;9.160;2024-02-21T07:28:06;6.38;;;2.53;;
3465;SDS011;1747;48.884;9.160;2024-02-21T07:30:34;3.90;;;2.47;;
3465;SDS011;1747;48.884;9.160;2024-02-21T07:33:02;4.55;;;2.20;;
3465;SDS011;1747;48.884;9.160;2024-02-21T07:35:29;7.97;;;2.50;;
3465;SDS011;1747;48.884;9.160;2024-02-21T07:37:56;12.20;;;3.25;;
3465;SDS011;1747;48.884;9.160;2024-02-21T07:40:23;9.07;;;2.78;;
3465;SDS011;1747;48.884;9.160;2024-02-21T07:42:50;8.98;;;2.67;;
3465;SDS011;1747;48.884;9.160;2024-02-21T07:45:16;8.32;;;2.55;;
3465;SDS011;1747;48.884;9.160;2024-02-21T07:47:46;7.82;;;2.70;;
3465;SDS011;1747;48.884;9.160;2024-02-21T07:50:15;11.00;;;2.42;;
3465;SDS011;1747;48.884;9.160;2024-02-21T07:52:42;3.33;;;2.20;;
3465;SDS011;1747;48.884;9.160;2024-02-21T07:55:09;9.25;;;2.75;;
3465;SDS011;1747;48.884;9.160;2024-02-21T07:57:36;5.75;;;2.45;;
3465;SDS011;1747;48.884;9.160;2024-02-21T08:00:03;9.00;;;2.22;;
3465;SDS011;1747;48.884;9.160;2024-02-21T08:02:33;6.97;;;2.30;;
3465;SDS011;1747;48.884;9.160;2024-02-21T08:05:00;8.60;;;1.75;;
3465;SDS011;1747;48.884;9.160;2024-02-21T08:07:30;8.23;;;2.05;;
3465;SDS011;1747;48.884;9.160;2024-02-21T08:09:57;4.50;;;1.55;;
3465;SDS011;1747;48.884;9.160;2024-02-21T08:12:23;4.82;;;1.60;;
3465;SDS011;1747;48.884;9.160;2024-02-21T08:14:50;3.88;;;1.67;;
3465;SDS011;1747;48.884;9.160;2024-02-21T08:17:17;11.52;;;2.03;;
3465;SDS011;1747;48.884;9.160;2024-02-21T08:19:44;4.80;;;1.63;;
3465;SDS011;1747;48.884;9.160;2024-02-21T08:22:10;4.22;;;1.48;;
3465;SDS011;1747;48.884;9.160;2024-02-21T08:24:39;6.13;;;1.70;;
3465;SDS011;1747;48.884;9.160;2024-02-21T08:27:05;9.65;;;2.03;;
3465;SDS011;1747;48.884;9.160;2024-02-21T08:29:32;4.15;;;1.52;;
3465;SDS011;1747;48.884;9.160;2024-02-21T08:31:59;7.03;;;1.52;;
3465;SDS011;1747;48.884;9.160;2024-02-21T08:34:26;5.78;;;1.70;;
3465;SDS011;1747;48.884;9.160;2024-02-21T08:36:54;9.45;;;1.65;;
3465;SDS011;1747;48.884;9.160;2024-02-21T08:39:21;7.25;;;1.67;;
3465;SDS011;1747;48.884;9.160;2024-02-21T08:41:50;6.55;;;1.80;;
3465;SDS011;1747;48.884;9.160;2024-02-21T08:44:17;5.38;;;1.48;;
3465;SDS011;1747;48.884;9.160;2024-02-21T08:46:44;9.27;;;1.50;;
3465;SDS011;1747;48.884;9.160;2024-02-21T08:49:12;8.50;;;2.47;;
3465;SDS011;1747;48.884;9.160;2024-02-21T08:51:39;6.15;;;1.40;;
3465;SDS011;1747;48.884;9.160;2024-02-21T08:54:06;5.13;;;1.75;;
3465;SDS011;1747;48.884;9.160;2024-02-21T08:56:33;4.47;;;2.13;;
3465;SDS011;1747;48.884;9.160;2024-02-21T08:59:01;5.57;;;1.40;;
3465;SDS011;1747;48.884;9.160;2024-02-21T09:01:28;7.00;;;1.38;;
3465;SDS011;1747;48.884;9.160;2024-02-21T09:03:55;3.33;;;1.20;;
3465;SDS011;1747;48.884;9.160;2024-02-21T09:06:23;8.73;;;1.63;;
3465;SDS011;1747;48.884;9.160;2024-02-21T09:08:50;9.13;;;1.95;;
3465;SDS011;1747;48.884;9.160;2024-02-21T09:11:17;4.45;;;1.48;;
3465;SDS011;1747;48.884;9.160;2024-02-21T09:13:44;8.85;;;1.77;;
3465;SDS011;1747;48.884;9.160;2024-02-21T09:16:12;5.97;;;1.63;;
3465;SDS011;1747;48.884;9.160;2024-02-21T09:18:39;6.00;;;1.70;;
3465;SDS011;1747;48.884;9.160;2024-02-21T09:21:06;6.78;;;1.65;;
3465;SDS011;1747;48.884;9.160;2024-02-21T09:23:33;3.58;;;1.42;;
3465;SDS011;1747;48.884;9.160;2024-02-21T09:26:00;5.25;;;1.90;;
3465;SDS011;1747;48.884;9.160;2024-02-21T09:28:29;7.72;;;1.80;;
3465;SDS011;1747;48.884;9.160;2024-02-21T09:30:56;6.30;;;1.67;;
3465;SDS011;1747;48.884;9.160;2024-02-21T09:33:24;3.03;;;1.50;;
3465;SDS011;1747;48.884;9.160;2024-02-21T09:35:51;10.18;;;1.98;;
3465;SDS011;1747;48.884;9.160;2024-02-21T09:38:18;6.20;;;1.77;;
3465;SDS011;1747;48.884;9.160;2024-02-21T09:40:45;6.47;;;1.70;;
3465;SDS011;1747;48.884;9.160;2024-02-21T09:43:12;9.30;;;1.60;;
3465;SDS011;1747;48.884;9.160;2024-02-21T09:45:46;7.38;;;1.67;;
3465;SDS011;1747;48.884;9.160;2024-02-21T09:48:18;7.35;;;1.73;;
3465;SDS011;1747;48.884;9.160;2024-02-21T09:50:56;4.97;;;1.30;;
3465;SDS011;1747;48.884;9.160;2024-02-21T09:53:24;7.80;;;1.52;;
3465;SDS011;1747;48.884;9.160;2024-02-21T09:55:52;4.13;;;1.40;;
3465;SDS011;1747;48.884;9.160;2024-02-21T09:58:19;5.45;;;1.40;;
3465;SDS011;1747;48.884;9.160;2024-02-21T10:00:47;4.63;;;1.40;;
3465;SDS011;1747;48.884;9.160;2024-02-21T10:03:14;4.07;;;1.48;;
3465;SDS011;1747;48.884;9.160;2024-02-21T10:05:48;4.20;;;1.50;;
3465;SDS011;1747;48.884;9.160;2024-02-21T10:08:17;7.88;;;2.92;;
3465;SDS011;1747;48.884;9.160;2024-02-21T10:10:45;7.18;;;1.98;;
3465;SDS011;1747;48.884;9.160;2024-02-21T10:13:23;7.47;;;1.58;;
3465;SDS011;1747;48.884;9.160;2024-02-21T10:16:00;4.50;;;1.40;;
3465;SDS011;1747;48.884;9.160;2024-02-21T10:18:28;4.90;;;1.50;;
3465;SDS011;1747;48.884;9.160;2024-02-21T10:21:02;3.72;;;1.40;;
3465;SDS011;1747;48.884;9.160;2024-02-21T10:23:40;4.70;;;1.80;;
3465;SDS011;1747;48.884;9.160;2024-02-21T10:26:08;3.28;;;1.40;;
3465;SDS011;1747;48.884;9.160;2024-02-21T10:28:35;4.90;;;1.50;;
3465;SDS011;1747;48.884;9.160;2024-02-21T10:31:03;6.57;;;1.73;;
3465;SDS011;1747;48.884;9.160;2024-02-21T10:33:30;5.47;;;1.80;;
3465;SDS011;1747;48.884;9.160;2024-02-21T10:36:07;4.85;;;1.27;;
3465;SDS011;1747;48.884;9.160;2024-02-21T10:38:35;4.28;;;1.40;;
3465;SDS011;1747;48.884;9.160;2024-02-21T10:41:03;8.88;;;1.73;;
3465;SDS011;1747;48.884;9.160;2024-02-21T10:43:33;3.55;;;1.20;;
3465;SDS011;1747;48.884;9.160;2024-02-21T10:46:05;5.68;;;1.50;;
3465;SDS011;1747;48.884;9.160;2024-02-21T10:48:36;4.57;;;1.50;;
3465;SDS011;1747;48.884;9.160;2024-02-21T10:51:10;7.72;;;2.40;;
3465;SDS011;1747;48.884;9.160;2024-02-21T10:53:45;4.25;;;1.70;;
3465;SDS011;1747;48.884;9.160;2024-02-21T10:56:20;5.20;;;1.60;;
3465;SDS011;1747;48.884;9.160;2024-02-21T10:58:49;8.32;;;1.60;;
3465;SDS011;1747;48.884;9.160;2024-02-21T11:01:17;8.07;;;1.70;;
3465;SDS011;1747;48.884;9.160;2024-02-21T11:03:45;5.20;;;1.60;;
3465;SDS011;1747;48.884;9.160;2024-02-21T11:06:15;3.63;;;1.27;;
3465;SDS011;1747;48.884;9.160;2024-02-21T11:08:43;4.97;;;1.33;;
3465;SDS011;1747;48.884;9.160;2024-02-21T11:11:11;3.95;;;1.50;;
3465;SDS011;1747;48.884;9.160;2024-02-21T11:13:42;6.35;;;1.50;;
3465;SDS011;1747;48.884;9.160;2024-02-21T11:16:11;5.50;;;1.45;;
3465;SDS011;1747;48.884;9.160;2024-02-21T11:18:47;6.22;;;1.35;;
3465;SDS011;1747;48.884;9.160;2024-02-21T11:21:15;4.97;;;1.50;;
3465;SDS011;1747;48.884;9.160;2024-02-21T11:23:41;4.75;;;1.20;;
3465;SDS011;1747;48.884;9.160;2024-02-21T11:26:08;4.03;;;1.58;;
3465;SDS011;1747;48.884;9.160;2024-02-21T11:28:36;7.28;;;1.75;;
3465;SDS011;1747;48.884;9.160;2024-02-21T11:31:10;8.35;;;1.55;;
3465;SDS011;1747;48.884;9.160;2024-02-21T11:33:39;6.35;;;1.70;;
3465;SDS011;1747;48.884;9.160;2024-02-21T11:36:06;3.53;;;1.45;;
3465;SDS011;1747;48.884;9.160;2024-02-21T11:38:35;7.85;;;1.83;;
3465;SDS011;1747;48.884;9.160;2024-02-21T11:41:02;4.97;;;1.48;;
3465;SDS011;1747;48.884;9.160;2024-02-21T11:43:34;6.35;;;1.67;;
3465;SDS011;1747;48.884;9.160;2024-02-21T11:46:01;5.72;;;1.45;;
3465;SDS011;1747;48.884;9.160;2024-02-21T11:48:28;4.85;;;1.58;;
3465;SDS011;1747;48.884;9.160;2024-02-21T11:50:56;3.50;;;1.50;;
3465;SDS011;1747;48.884;9.160;2024-02-21T11:53:23;4.75;;;1.20;;
3465;SDS011;1747;48.884;9.160;2024-02-21T11:55:53;4.57;;;1.40;;
3465;SDS011;1747;48.884;9.160;2024-02-21T11:58:21;4.85;;;1.42;;
3465;SDS011;1747;48.884;9.160;2024-02-21T12:00:49;6.38;;;1.73;;
3465;SDS011;1747;48.884;9.160;2024-02-21T12:03:19;5.65;;;1.77;;
3465;SDS011;1747;48.884;9.160;2024-02-21T12:05:46;7.00;;;1.73;;
3465;SDS011;1747;48.884;9.160;2024-02-21T12:08:16;4.45;;;1.45;;
3465;SDS011;1747;48.884;9.160;2024-02-21T12:10:44;4.97;;;1.33;;
3465;SDS011;1747;48.884;9.160;2024-02-21T12:13:17;5.07;;;1.70;;
3465;SDS011;1747;48.884;9.160;2024-02-21T12:15:49;6.82;;;1.98;;
3465;SDS011;1747;48.884;9.160;2024-02-21T12:18:16;7.97;;;2.50;;
3465;SDS011;1747;48.884;9.160;2024-02-21T12:20:43;3.75;;;1.45;;
3465;SDS011;1747;48.884;9.160;2024-02-21T12:23:11;4.50;;;1.40;;
3465;SDS011;1747;48.884;9.160;2024-02-21T12:25:38;6.38;;;1.40;;
3465;SDS011;1747;48.884;9.160;2024-02-21T12:28:05;9.90;;;1.48;;
3465;SDS011;1747;48.884;9.160;2024-02-21T12:30:34;2.85;;;1.35;;
3465;SDS011;1747;48.884;9.160;2024-02-21T12:33:05;5.55;;;1.70;;
3465;SDS011;1747;48.884;9.160;2024-02-21T12:35:32;5.90;;;1.40;;
3465;SDS011;1747;48.884;9.160;2024-02-21T12:37:58;5.85;;;1.30;;
3465;SDS011;1747;48.884;9.160;2024-02-21T12:40:26;6.22;;;1.45;;
3465;SDS011;1747;48.884;9.160;2024-02-21T12:42:57;5.57;;;1.70;;
3465;SDS011;1747;48.884;9.160;2024-02-21T12:45:24;4.47;;;1.38;;
3465;SDS011;1747;48.884;9.160;2024-02-21T12:47:53;6.45;;;2.13;;
3465;SDS011;1747;48.884;9.160;2024-02-21T12:50:19;3.70;;;1.45;;
3465;SDS011;1747;48.884;9.160;2024-02-21T12:52:47;5.90;;;1.50;;
3465;SDS011;1747;48.884;9.160;2024-02-21T12:55:14;6.32;;;1.50;;
3465;SDS011;1747;48.884;9.160;2024-02-21T12:57:42;4.03;;;1.30;;
3465;SDS011;1747;48.884;9.160;2024-02-21T13:00:09;3.30;;;1.30;;
3465;SDS011;1747;48.884;9.160;2024-02-21T13:02:36;5.88;;;1.55;;
3465;SDS011;1747;48.884;9.160;2024-02-21T13:05:05;4.15;;;1.80;;
3465;SDS011;1747;48.884;9.160;2024-02-21T13:07:33;6.78;;;1.50;;
3465;SDS011;1747;48.884;9.160;2024-02-21T13:09:59;4.53;;;1.73;;
3465;SDS011;1747;48.884;9.160;2024-02-21T13:12:26;5.90;;;1.45;;
3465;SDS011;1747;48.884;9.160;2024-02-21T13:14:55;6.78;;;1.60;;
3465;SDS011;1747;48.884;9.160;2024-02-21T13:17:22;2.78;;;1.20;;
3465;SDS011;1747;48.884;9.160;2024-02-21T13:19:49;6.72;;;1.20;;
3465;SDS011;1747;48.884;9.160;2024-02-21T13:22:17;5.47;;;1.60;;
3465;SDS011;1747;48.884;9.160;2024-02-21T13:24:47;5.85;;;1.35;;
3465;SDS011;1747;48.884;9.160;2024-02-21T13:27:14;6.95;;;1.90;;
3465;SDS011;1747;48.884;9.160;2024-02-21T13:29:41;3.38;;;1.20;;
3465;SDS011;1747;48.884;9.160;2024-02-21T13:32:07;5.57;;;1.67;;
3465;SDS011;1747;48.884;9.160;2024-02-21T13:34:34;7.90;;;1.27;;
3465;SDS011;1747;48.884;9.160;2024-02-21T13:37:03;3.38;;;1.27;;
3465;SDS011;1747;48.884;9.160;2024-02-21T13:39:33;4.18;;;1.40;;
3465;SDS011;1747;48.884;9.160;2024-02-21T13:42:00;4.35;;;1.40;;
3465;SDS011;1747;48.884;9.160;2024-02-21T13:44:30;3.55;;;1.15;;
3465;SDS011;1747;48.884;9.160;2024-02-21T13:46:57;5.25;;;1.30;;
3465;SDS011;1747;48.884;9.160;2024-02-21T13:49:24;6.15;;;1.33;;
3465;SDS011;1747;48.884;9.160;2024-02-21T13:51:51;5.20;;;1.58;;
3465;SDS011;1747;48.884;9.160;2024-02-21T13:54:18;7.07;;;1.70;;
3465;SDS011;1747;48.884;9.160;2024-02-21T13:56:48;3.70;;;1.08;;
3465;SDS011;1747;48.884;9.160;2024-02-21T13:59:15;5.90;;;1.08;;
3465;SDS011;1747;48.884;9.160;2024-02-21T14:01:43;3.50;;;1.30;;
3465;SDS011;1747;48.884;9.160;2024-02-21T14:04:10;3.13;;;1.15;;
3465;SDS011;1747;48.884;9.160;2024-02-21T14:06:37;3.63;;;1.20;;
3465;SDS011;1747;48.884;9.160;2024-02-21T14:09:08;2.47;;;1.10;;
3465;SDS011;1747;48.884;9.160;2024-02-21T14:11:35;2.22;;;1.10;;
3465;SDS011;1747;48.884;9.160;2024-02-21T14:14:08;2.40;;;0.80;;
3465;SDS011;1747;48.884;9.160;2024-02-21T14:16:34;3.95;;;1.35;;
3465;SDS011;1747;48.884;9.160;2024-02-21T14:19:02;3.13;;;1.48;;
3465;SDS011;1747;48.884;9.160;2024-02-21T14:21:34;3.58;;;1.60;;
3465;SDS011;1747;48.884;9.160;2024-02-21T14:24:02;6.35;;;1.73;;
3465;SDS011;1747;48.884;9.160;2024-02-21T14:26:29;5.47;;;1.30;;
3465;SDS011;1747;48.884;9.160;2024-02-21T14:28:56;2.92;;;1.30;;
3465;SDS011;1747;48.884;9.160;2024-02-21T14:31:24;5.28;;;1.48;;
3465;SDS011;1747;48.884;9.160;2024-02-21T14:33:51;3.25;;;1.30;;
3465;SDS011;1747;48.884;9.160;2024-02-21T14:36:18;2.88;;;1.42;;
3465;SDS011;1747;48.884;9.160;2024-02-21T14:38:46;5.45;;;1.25;;
3465;SDS011;1747;48.884;9.160;2024-02-21T14:41:13;3.03;;;1.20;;
3465;SDS011;1747;48.884;9.160;2024-02-21T14:43:40;4.05;;;1.50;;
3465;SDS011;1747;48.884;9.160;2024-02-21T14:46:08;3.08;;;1.63;;
3465;SDS011;1747;48.884;9.160;2024-02-21T14:48:38;2.38;;;1.10;;
3465;SDS011;1747;48.884;9.160;2024-02-21T14:51:05;3.00;;;0.90;;
3465;SDS011;1747;48.884;9.160;2024-02-21T14:53:32;4.93;;;1.33;;
3465;SDS011;1747;48.884;9.160;2024-02-21T14:56:00;4.50;;;1.48;;
3465;SDS011;1747;48.884;9.160;2024-02-21T14:58:27;5.82;;;2.00;;
3465;SDS011;1747;48.884;9.160;2024-02-21T15:00:54;5.95;;;2.17;;
3465;SDS011;1747;48.884;9.160;2024-02-21T15:03:21;6.88;;;2.00;;
3465;SDS011;1747;48.884;9.160;2024-02-21T15:05:49;8.90;;;1.70;;
3465;SDS011;1747;48.884;9.160;2024-02-21T15:08:16;6.70;;;1.98;;
3465;SDS011;1747;48.884;9.160;2024-02-21T15:10:44;3.28;;;1.60;;
3465;SDS011;1747;48.884;9.160;2024-02-21T15:13:11;6.47;;;1.80;;
3465;SDS011;1747;48.884;9.160;2024-02-21T15:15:38;7.28;;;2.42;;
3465;SDS011;1747;48.884;9.160;2024-02-21T15:18:05;7.72;;;2.65;;